Time;durP1;ratioP1;P1;durP2;ratioP2;P2;SDS_P1;SDS_P2;PMS_P1;PMS_P2;Temp;Humidity;BMP_temperature;BMP_pressure;BME280_temperature;BME280_humidity;BME280_pressure;Samples;Min_cycle;Max_cycle;Signal;HPM_P1;HPM_P2
2022/09/29 00:01:05;;;;;;;2.60;1.20;;;;;;;9.98;63.28;98527.34;4996635;28;20082;-42
2022/09/29 00:03:36;;;;;;;2.95;1.58;;;;;;;9.99;63.57;98521.28;4987416;28;20359;-42
2022/09/29 00:06:03;;;;;;;2.55;1.20;;;;;;;10.00;62.98;98522.13;4985957;28;20058;-43
2022/09/29 00:08:30;;;;;;;3.03;1.30;;;;;;;10.00;62.69;98517.78;4991328;28;20050;-41
2022/09/29 00:10:57;;;;;;;3.22;1.35;;;;;;;9.99;63.32;98525.59;4985812;28;20082;-43
2022/09/29 00:13:23;;;;;;;4.32;1.60;;;;;;;10.00;63.48;98517.78;4986436;28;20042;-43
2022/09/29 00:16:00;;;;;;;2.65;1.27;;;;;;;9.97;63.52;98517.03;4985996;28;20042;-43
2022/09/29 00:18:28;;;;;;;3.72;1.83;;;;;;;9.98;63.45;98514.41;4988623;28;20194;-43
2022/09/29 00:23:35;;;;;;;3.45;1.98;;;;;;;9.95;63.67;98506.72;5030047;28;20411;-44
2022/09/29 00:26:07;;;;;;;5.03;1.88;;;;;;;9.96;63.33;98511.00;5021685;28;20065;-43
2022/09/29 00:28:38;;;;;;;3.63;1.40;;;;;;;9.96;63.27;98505.00;5023451;28;20077;-42
2022/09/29 00:31:09;;;;;;;3.10;1.65;;;;;;;9.94;63.19;98505.03;5020261;28;20545;-42
2022/09/29 00:33:38;;;;;;;3.22;1.85;;;;;;;9.94;63.28;98505.03;5001308;28;20566;-42
2022/09/29 00:36:11;;;;;;;4.80;1.63;;;;;;;9.95;63.94;98506.72;5002565;28;20129;-42
2022/09/29 00:38:41;;;;;;;3.20;1.48;;;;;;;9.95;63.51;98503.28;5023741;28;20050;-43
2022/09/29 00:41:23;;;;;;;4.85;2.05;;;;;;;9.91;63.14;98505.09;5022107;28;20046;-42
2022/09/29 00:43:58;;;;;;;3.20;1.63;;;;;;;9.93;64.14;98508.50;5020985;28;20045;-43
2022/09/29 00:52:16;;;;;;;8.52;2.33;;;;;;;9.89;63.66;98510.31;5059462;28;20412;-44
2022/09/29 00:54:49;;;;;;;4.07;1.80;;;;;;;9.91;63.62;98499.94;5017337;28;20592;-44
2022/09/29 00:57:20;;;;;;;3.95;1.85;;;;;;;9.89;64.06;98499.97;5018292;28;20136;-44
2022/09/29 00:59:54;;;;;;;3.70;1.63;;;;;;;9.88;63.27;98500.00;5022483;28;20050;-42
2022/09/29 01:02:22;;;;;;;3.22;1.42;;;;;;;9.86;63.89;98506.97;5018940;28;20085;-44
2022/09/29 01:04:52;;;;;;;3.67;1.73;;;;;;;9.86;63.45;98499.22;5025638;28;20041;-44
2022/09/29 01:07:22;;;;;;;4.82;2.05;;;;;;;9.85;63.96;98503.53;5019128;28;20668;-43
2022/09/29 01:09:52;;;;;;;4.70;1.23;;;;;;;9.82;63.93;98508.75;5022047;28;20129;-42
2022/09/29 01:12:19;;;;;;;3.40;1.65;;;;;;;9.81;63.66;98506.22;5018947;28;20104;-41
2022/09/29 01:14:47;;;;;;;3.85;1.50;;;;;;;9.79;63.73;98505.41;5021273;28;20069;-42
2022/09/29 01:17:14;;;;;;;2.42;1.20;;;;;;;9.77;63.61;98511.44;5017133;28;20052;-42
2022/09/29 01:19:57;;;;;;;4.93;1.52;;;;;;;9.74;63.90;98503.78;5020986;28;20132;-46
2022/09/29 01:39:10;;;;;;;5.43;1.88;;;;;;;9.82;63.89;98506.19;5021647;27;20410;-42
2022/09/29 01:41:48;;;;;;;2.65;1.33;;;;;;;9.85;64.62;98497.50;5009820;28;20480;-41
2022/09/29 01:47:08;;;;;;;3.40;2.65;;;;;;;9.90;64.07;98503.41;5041099;28;20417;-42
2022/09/29 01:49:40;;;;;;;4.13;2.80;;;;;;;9.90;64.34;98500.84;5002687;28;20137;-43
2022/09/29 01:52:12;;;;;;;2.67;1.27;;;;;;;9.93;64.44;98500.72;5001250;28;22496;-42
2022/09/29 01:57:29;;;;;;;1.80;1.10;;;;;;;9.94;64.79;98502.44;5006667;27;20412;-42
2022/09/29 02:05:26;;;;;;;3.00;2.65;;;;;;;9.98;64.87;98496.31;5039589;27;20762;-42
2022/09/29 02:07:55;;;;;;;4.20;2.67;;;;;;;10.01;64.90;98509.19;5017822;28;20129;-41
2022/09/29 02:10:27;;;;;;;3.67;2.58;;;;;;;10.02;65.54;98500.50;5023170;28;20049;-45
2022/09/29 02:12:58;;;;;;;3.13;2.38;;;;;;;10.05;65.47;98503.91;5021462;28;20176;-45
2022/09/29 02:15:31;;;;;;;4.18;2.33;;;;;;;10.08;65.13;98498.66;5020817;28;20077;-43
2022/09/29 02:18:05;;;;;;;3.17;2.85;;;;;;;10.09;65.51;98495.16;5020985;28;20132;-44
2022/09/29 02:20:31;;;;;;;2.75;2.28;;;;;;;10.11;65.19;98496.84;5020388;28;20137;-43
2022/09/29 02:22:58;;;;;;;4.45;2.30;;;;;;;10.13;65.20;98499.38;5018349;28;20089;-46
2022/09/29 02:25:25;;;;;;;2.75;2.53;;;;;;;10.16;65.04;98501.88;5018679;28;20137;-45
2022/09/29 02:27:52;;;;;;;3.78;2.80;;;;;;;10.18;65.42;98500.13;5021769;28;20046;-44
2022/09/29 02:30:19;;;;;;;7.20;3.03;;;;;;;10.18;65.66;98494.94;5020207;28;20084;-42
2022/09/29 02:32:46;;;;;;;4.95;2.25;;;;;;;10.19;65.36;98501.81;5020932;28;20144;-43
2022/09/29 02:35:14;;;;;;;3.25;2.55;;;;;;;10.19;65.64;98501.81;5020208;28;20042;-43
2022/09/29 02:40:50;;;;;;;2.65;1.20;;;;;;;10.18;66.05;98494.09;5075238;27;20762;-43
2022/09/29 02:49:24;;;;;;;3.28;1.75;;;;;;;10.32;66.66;98506.66;5081204;27;20871;-41
2022/09/29 02:57:50;;;;;;;3.88;1.58;;;;;;;10.30;66.32;98506.69;5073223;27;20398;-42
2022/09/29 03:00:18;;;;;;;3.08;1.38;;;;;;;10.33;65.91;98513.56;5040720;28;20049;-42
2022/09/29 03:02:45;;;;;;;2.88;1.50;;;;;;;10.35;66.91;98511.75;5040473;28;20049;-44
2022/09/29 03:05:15;;;;;;;3.65;1.60;;;;;;;10.36;66.19;98503.09;5041753;28;20135;-41
2022/09/29 03:07:42;;;;;;;2.40;1.27;;;;;;;10.37;66.55;98507.41;5041759;28;20068;-42
2022/09/29 03:10:11;;;;;;;3.45;1.25;;;;;;;10.38;66.53;98509.09;5039977;28;20148;-42
2022/09/29 03:12:38;;;;;;;3.35;1.35;;;;;;;10.38;66.08;98511.69;5042960;28;20083;-41
2022/09/29 03:15:06;;;;;;;3.38;1.67;;;;;;;10.37;66.80;98510.00;5037398;28;20136;-43
2022/09/29 03:17:33;;;;;;;4.13;1.63;;;;;;;10.38;66.90;98509.09;5067859;28;20073;-42
2022/09/29 03:20:00;;;;;;;6.97;1.70;;;;;;;10.36;66.73;98509.13;5037859;28;20068;-43
2022/09/29 03:22:27;;;;;;;3.90;1.70;;;;;;;10.38;66.65;98522.03;5036024;28;20124;-42
2022/09/29 03:24:53;;;;;;;2.75;1.75;;;;;;;10.39;66.41;98518.53;5039599;28;20077;-42
2022/09/29 03:27:20;;;;;;;4.72;1.85;;;;;;;10.40;67.02;98515.06;5041130;28;20045;-41
2022/09/29 03:29:46;;;;;;;3.88;1.52;;;;;;;10.42;66.71;98518.47;5040341;28;20135;-43
2022/09/29 03:32:13;;;;;;;3.17;1.63;;;;;;;10.44;66.75;98521.88;5038523;28;20132;-43
2022/09/29 03:34:39;;;;;;;3.42;1.92;;;;;;;10.47;66.34;98531.34;5038526;28;20141;-42
2022/09/29 03:37:06;;;;;;;3.05;1.77;;;;;;;10.48;66.59;98528.72;5032545;28;20124;-42
2022/09/29 03:39:32;;;;;;;3.90;1.80;;;;;;;10.51;66.78;98533.78;5042078;28;20148;-42
2022/09/29 03:41:59;;;;;;;3.78;1.80;;;;;;;10.51;67.01;98538.94;5040933;28;20043;-43
2022/09/29 03:44:26;;;;;;;4.35;1.65;;;;;;;10.53;66.78;98532.00;5035180;28;20155;-42
2022/09/29 03:46:52;;;;;;;4.25;1.98;;;;;;;10.54;67.24;98528.53;5040255;28;20125;-42
2022/09/29 03:49:19;;;;;;;3.75;1.95;;;;;;;10.56;67.16;98531.06;5038797;28;20103;-43
2022/09/29 03:51:46;;;;;;;4.10;1.92;;;;;;;10.59;66.63;98535.31;5039501;28;20132;-42
2022/09/29 03:54:12;;;;;;;3.95;2.22;;;;;;;10.60;66.43;98537.88;5041409;28;20072;-42
2022/09/29 03:56:39;;;;;;;4.55;1.63;;;;;;;10.60;66.87;98529.25;5040202;28;20168;-41
2022/09/29 03:59:08;;;;;;;4.60;1.80;;;;;;;10.58;66.89;98534.47;5041316;28;20072;-42
2022/09/29 04:01:36;;;;;;;4.43;2.75;;;;;;;10.58;66.71;98537.06;5034016;28;20393;-43
2022/09/29 04:04:05;;;;;;;3.78;1.52;;;;;;;10.58;67.03;98534.47;5037186;28;20123;-41
2022/09/29 04:06:32;;;;;;;3.90;2.10;;;;;;;10.58;67.40;98529.31;5038271;28;20126;-44
2022/09/29 04:08:59;;;;;;;4.10;1.98;;;;;;;10.58;67.15;98538.81;5027375;28;20046;-42
2022/09/29 04:11:26;;;;;;;8.65;2.40;;;;;;;10.58;67.75;98533.63;5024886;28;20137;-44
2022/09/29 04:13:53;;;;;;;3.55;1.92;;;;;;;10.58;67.28;98533.63;5027047;28;20038;-43
2022/09/29 04:16:20;;;;;;;5.97;1.95;;;;;;;10.57;67.41;98537.09;5024634;28;20091;-43
2022/09/29 04:18:46;;;;;;;4.57;1.83;;;;;;;10.58;67.81;98537.06;5029492;28;20045;-41
2022/09/29 04:21:13;;;;;;;5.50;2.10;;;;;;;10.57;67.62;98537.94;5023383;28;20095;-42
2022/09/29 04:23:40;;;;;;;3.67;1.83;;;;;;;10.57;67.42;98537.09;5024819;28;20079;-41
2022/09/29 04:26:07;;;;;;;4.07;2.08;;;;;;;10.58;67.73;98538.81;5025611;28;20045;-42
2022/09/29 04:28:35;;;;;;;4.75;2.67;;;;;;;10.59;68.49;98550.84;5024051;28;20168;-41
2022/09/29 04:31:02;;;;;;;4.05;2.03;;;;;;;10.58;68.60;98543.97;5022113;28;20128;-41
2022/09/29 04:33:28;;;;;;;4.38;3.42;;;;;;;10.58;68.59;98554.34;5026999;28;20413;-42
2022/09/29 04:35:56;;;;;;;4.68;2.53;;;;;;;10.57;68.19;98557.81;5025074;28;20052;-44
2022/09/29 04:38:23;;;;;;;3.75;2.00;;;;;;;10.58;68.18;98554.34;5030004;28;20477;-43
2022/09/29 04:40:50;;;;;;;4.35;2.15;;;;;;;10.59;68.30;98563.78;5025918;28;20133;-43
2022/09/29 04:43:17;;;;;;;4.32;2.40;;;;;;;10.60;68.89;98557.75;5023327;28;20049;-44
2022/09/29 04:45:43;;;;;;;3.90;2.15;;;;;;;10.61;68.93;98564.63;5025614;28;20046;-43
2022/09/29 04:48:10;;;;;;;4.43;2.20;;;;;;;10.64;69.11;98569.72;5026653;28;20048;-44
2022/09/29 04:50:37;;;;;;;5.05;2.30;;;;;;;10.65;68.87;98566.22;5026924;28;20077;-42
2022/09/29 04:53:04;;;;;;;4.50;1.95;;;;;;;10.65;68.48;98579.19;5026817;28;20580;-41
2022/09/29 04:55:30;;;;;;;5.45;2.55;;;;;;;10.65;68.76;98576.59;5023683;28;20128;-41
2022/09/29 04:57:57;;;;;;;4.07;2.38;;;;;;;10.66;68.45;98583.44;5027026;28;20148;-42
2022/09/29 05:00:23;;;;;;;3.47;2.08;;;;;;;10.66;69.18;98578.28;5023738;28;20084;-40
2022/09/29 05:02:50;;;;;;;5.60;2.35;;;;;;;10.68;68.58;98573.91;5026080;28;20124;-47
2022/09/29 05:05:16;;;;;;;5.28;2.42;;;;;;;10.69;69.30;98582.53;5026981;28;20144;-42
2022/09/29 05:07:44;;;;;;;4.47;2.30;;;;;;;10.69;69.32;98587.69;5023390;28;20069;-44
2022/09/29 05:10:11;;;;;;;5.03;2.25;;;;;;;10.68;68.98;98586.88;5024614;28;20041;-42
2022/09/29 05:12:37;;;;;;;4.50;2.55;;;;;;;10.69;69.26;98585.97;5026908;28;20077;-41
2022/09/29 05:15:05;;;;;;;3.75;1.92;;;;;;;10.71;68.38;98591.94;5025809;28;20212;-40
2022/09/29 05:17:32;;;;;;;4.90;2.45;;;;;;;10.71;69.10;98591.94;5027014;28;20049;-42
2022/09/29 05:19:59;;;;;;;4.75;2.85;;;;;;;10.73;69.00;98592.75;5025393;28;20137;-42
2022/09/29 05:22:28;;;;;;;3.85;1.95;;;;;;;10.75;69.44;98593.59;5025753;28;20171;-41
2022/09/29 05:24:54;;;;;;;6.95;2.75;;;;;;;10.77;69.34;98604.72;5023877;28;20073;-41
2022/09/29 05:27:21;;;;;;;5.25;2.15;;;;;;;10.78;69.19;98609.00;5024321;28;20132;-42
2022/09/29 05:29:48;;;;;;;4.97;2.83;;;;;;;10.79;69.43;98610.75;5025822;28;20046;-41
2022/09/29 05:32:15;;;;;;;6.57;2.63;;;;;;;10.80;69.66;98602.06;5024436;28;20055;-42
2022/09/29 05:34:41;;;;;;;4.25;2.33;;;;;;;10.80;69.33;98612.44;5028447;28;20068;-41
2022/09/29 05:37:08;;;;;;;6.43;2.70;;;;;;;10.83;69.04;98611.50;5024644;28;20128;-40
2022/09/29 05:39:36;;;;;;;5.88;2.50;;;;;;;10.85;69.37;98614.03;5023417;28;20129;-41
2022/09/29 05:42:05;;;;;;;4.70;2.33;;;;;;;10.86;69.14;98610.56;5024310;28;20096;-41
2022/09/29 05:44:33;;;;;;;5.70;3.03;;;;;;;10.87;69.90;98607.06;5022909;28;20470;-41
2022/09/29 05:47:00;;;;;;;9.07;3.20;;;;;;;10.88;69.83;98607.03;5026663;28;20049;-42
2022/09/29 05:49:26;;;;;;;5.30;2.63;;;;;;;10.90;69.13;98613.03;5025230;28;20762;-41
2022/09/29 05:51:53;;;;;;;5.80;2.72;;;;;;;10.89;69.80;98616.53;5025530;28;20612;-41
2022/09/29 05:54:20;;;;;;;4.80;2.70;;;;;;;10.92;68.82;98615.59;5027161;28;20081;-40
2022/09/29 05:56:46;;;;;;;4.93;2.97;;;;;;;10.92;69.95;98620.75;5023858;28;20124;-41
2022/09/29 05:59:13;;;;;;;8.55;3.15;;;;;;;10.92;69.76;98625.94;5025537;28;20049;-40
2022/09/29 06:01:40;;;;;;;6.28;2.92;;;;;;;10.94;70.14;98631.91;5020905;28;20041;-41
2022/09/29 06:04:07;;;;;;;7.20;3.38;;;;;;;10.95;69.11;98625.88;5028626;28;20065;-42
2022/09/29 06:06:35;;;;;;;8.25;3.10;;;;;;;10.96;69.38;98632.72;5022886;28;20042;-41
2022/09/29 06:09:02;;;;;;;5.68;3.08;;;;;;;10.98;69.12;98637.88;5024338;28;20045;-41
2022/09/29 06:11:30;;;;;;;5.47;3.00;;;;;;;10.98;69.28;98650.84;5023539;28;20077;-41
2022/09/29 06:13:58;;;;;;;5.43;2.55;;;;;;;10.97;69.95;98649.97;5025698;28;20042;-41
2022/09/29 06:16:27;;;;;;;6.95;3.60;;;;;;;10.98;70.22;98653.41;5021851;28;20081;-41
2022/09/29 06:18:55;;;;;;;8.00;3.20;;;;;;;10.96;69.83;98648.28;5022283;28;20127;-42
2022/09/29 06:21:23;;;;;;;5.50;2.90;;;;;;;10.98;70.20;98662.03;5016896;28;20096;-42
2022/09/29 06:23:51;;;;;;;7.07;3.33;;;;;;;10.97;70.63;98660.34;5025344;28;20042;-41
2022/09/29 06:26:19;;;;;;;8.13;3.08;;;;;;;11.01;69.73;98664.53;5021074;28;20046;-43
2022/09/29 06:28:49;;;;;;;9.38;3.35;;;;;;;11.00;70.35;98673.22;5021545;28;20056;-43
2022/09/29 06:31:18;;;;;;;6.05;2.97;;;;;;;10.99;70.38;98668.94;5017778;28;20056;-40
2022/09/29 06:33:45;;;;;;;7.60;3.35;;;;;;;11.00;70.27;98677.53;5025648;28;20041;-43
2022/09/29 06:39:12;;;;;;;6.55;3.03;;;;;;;11.00;70.72;98687.91;5006828;28;20502;-40
2022/09/29 06:41:40;;;;;;;9.25;3.50;;;;;;;11.01;70.14;98693.03;5015272;28;20057;-40
2022/09/29 06:44:07;;;;;;;8.70;3.70;;;;;;;11.01;70.06;98693.03;5016749;28;20175;-41
2022/09/29 06:46:34;;;;;;;6.45;3.25;;;;;;;11.03;70.87;98701.63;5014626;28;20132;-41
2022/09/29 06:49:00;;;;;;;8.00;4.03;;;;;;;11.04;70.35;98700.72;5012127;28;20052;-41
2022/09/29 06:51:27;;;;;;;9.65;3.58;;;;;;;11.10;70.26;98706.63;5018697;28;20095;-41
2022/09/29 06:54:06;;;;;;;7.70;3.95;;;;;;;11.14;71.12;98703.06;5020448;28;20050;-43
2022/09/29 06:56:38;;;;;;;14.65;5.10;;;;;;;11.19;70.73;98711.59;5019369;28;20046;-41
2022/09/29 06:59:05;;;;;;;14.52;5.40;;;;;;;11.23;71.32;98715.81;5020363;28;20037;-45
2022/09/29 07:01:32;;;;;;;15.27;5.43;;;;;;;11.28;70.52;98720.88;5015737;28;20137;-41
2022/09/29 07:04:01;;;;;;;12.52;5.13;;;;;;;11.33;71.03;98719.00;5017165;28;20046;-42
2022/09/29 07:06:28;;;;;;;15.00;5.35;;;;;;;11.39;71.64;98723.16;5020197;28;20050;-44
2022/09/29 07:08:55;;;;;;;13.30;5.35;;;;;;;11.43;71.57;98729.97;5018843;28;20049;-42
2022/09/29 07:11:22;;;;;;;18.08;5.13;;;;;;;11.46;71.37;98731.59;5015005;28;20340;-43
2022/09/29 07:13:50;;;;;;;12.95;5.22;;;;;;;11.47;70.69;98736.75;5016539;28;20069;-44
2022/09/29 07:16:22;;;;;;;11.57;4.93;;;;;;;11.48;71.40;98735.84;5018134;28;20041;-43
2022/09/29 07:18:50;;;;;;;12.38;4.82;;;;;;;11.50;71.51;98731.50;5017638;28;20145;-44
2022/09/29 07:21:17;;;;;;;11.13;4.40;;;;;;;11.52;71.98;98737.47;5014181;28;20051;-41
2022/09/29 07:23:45;;;;;;;19.33;5.97;;;;;;;11.55;71.06;98739.97;5019241;28;20354;-44
2022/09/29 07:26:15;;;;;;;13.00;5.50;;;;;;;11.59;71.19;98734.72;5017966;28;20077;-41
2022/09/29 07:28:43;;;;;;;12.70;4.65;;;;;;;11.61;72.11;98738.97;5019717;28;20045;-43
2022/09/29 07:31:13;;;;;;;13.35;5.40;;;;;;;11.65;71.09;98740.56;5018628;28;20470;-41
2022/09/29 07:33:43;;;;;;;11.85;4.22;;;;;;;11.67;71.75;98748.31;5020121;28;20050;-41
2022/09/29 07:36:11;;;;;;;11.00;4.75;;;;;;;11.70;71.88;98753.41;5018152;28;20052;-41
2022/09/29 07:38:38;;;;;;;12.77;4.88;;;;;;;11.74;71.13;98765.41;5021413;28;20050;-41
2022/09/29 07:41:08;;;;;;;12.13;3.95;;;;;;;11.77;71.18;98765.31;5025502;28;20489;-42
2022/09/29 07:43:34;;;;;;;9.82;4.53;;;;;;;11.80;71.58;98774.75;5025898;28;20124;-41
2022/09/29 07:46:01;;;;;;;12.65;4.88;;;;;;;11.82;71.28;98780.75;5028131;28;20456;-41
2022/09/29 07:48:30;;;;;;;8.88;3.72;;;;;;;11.86;71.60;98784.13;5025622;28;20046;-43
2022/09/29 07:51:01;;;;;;;11.80;4.10;;;;;;;11.88;72.64;98790.09;5027074;28;20665;-41
2022/09/29 07:53:29;;;;;;;10.35;3.85;;;;;;;11.92;71.63;98795.16;5024256;28;20045;-42
2022/09/29 07:56:02;;;;;;;11.57;5.10;;;;;;;11.94;71.33;98793.38;5027272;28;20715;-41
2022/09/29 07:58:31;;;;;;;11.43;4.60;;;;;;;11.98;71.88;98801.06;5026838;28;20087;-40
2022/09/29 08:00:58;;;;;;;14.68;4.18;;;;;;;11.99;71.35;98801.03;5025791;28;20049;-42
2022/09/29 08:03:25;;;;;;;12.82;5.00;;;;;;;12.03;71.47;98802.63;5024746;28;20050;-41
2022/09/29 08:05:52;;;;;;;14.13;5.32;;;;;;;12.07;71.26;98804.31;5025214;28;20046;-40
2022/09/29 08:08:19;;;;;;;10.80;4.88;;;;;;;12.11;71.67;98814.56;5027191;28;20049;-41
2022/09/29 08:10:46;;;;;;;12.18;5.15;;;;;;;12.13;71.74;98812.78;5023845;28;20053;-42
2022/09/29 08:13:19;;;;;;;14.90;5.03;;;;;;;12.13;71.60;98818.81;5026121;28;20053;-41
2022/09/29 08:15:45;;;;;;;11.25;4.88;;;;;;;12.15;71.15;98822.22;5029380;28;20095;-42
2022/09/29 08:18:12;;;;;;;11.32;4.53;;;;;;;12.17;71.45;98825.66;5027058;28;20485;-40
2022/09/29 08:20:39;;;;;;;11.88;4.28;;;;;;;12.20;71.54;98840.28;5026447;28;20096;-42
2022/09/29 08:23:05;;;;;;;10.25;3.95;;;;;;;12.21;70.76;98844.56;5025332;28;20065;-45
2022/09/29 08:25:34;;;;;;;13.23;4.82;;;;;;;12.20;71.12;98855.84;5026888;28;20518;-41
2022/09/29 08:28:00;;;;;;;13.60;5.25;;;;;;;12.19;71.59;98856.72;5022323;28;20433;-42
2022/09/29 08:30:28;;;;;;;11.65;4.50;;;;;;;12.16;71.84;98862.03;5025146;28;20149;-39
2022/09/29 08:32:54;;;;;;;18.17;4.88;;;;;;;12.16;72.55;98872.41;5022330;28;20153;-44
2022/09/29 08:35:21;;;;;;;14.55;4.38;;;;;;;12.16;72.42;98872.41;5028844;28;20045;-42
2022/09/29 08:37:47;;;;;;;15.52;5.65;;;;;;;12.14;72.00;98874.19;5025863;28;20052;-40
2022/09/29 08:40:15;;;;;;;11.60;4.70;;;;;;;12.14;72.00;98882.84;5028452;28;20103;-44
2022/09/29 08:45:38;;;;;;;14.25;4.82;;;;;;;12.17;71.95;98881.88;5100907;27;20937;-42
2022/09/29 08:48:18;;;;;;;15.07;5.45;;;;;;;12.19;71.71;98885.28;5028869;27;20041;-44
2022/09/29 08:51:11;;;;;;;13.32;5.32;;;;;;;12.24;71.24;98891.22;5018932;28;20100;-43
2022/09/29 08:53:44;;;;;;;14.35;6.07;;;;;;;12.36;71.53;98892.59;5035218;28;20065;-45
2022/09/29 08:56:26;;;;;;;11.50;3.80;;;;;;;12.44;72.44;98894.97;5030119;28;20378;-43
2022/09/29 08:58:52;;;;;;;12.00;6.00;;;;;;;12.56;72.59;98905.00;5019070;28;20097;-44
2022/09/29 09:04:34;;;;;;;14.30;4.65;;;;;;;12.66;72.05;98910.78;5075449;27;20386;-43
2022/09/29 09:07:41;;;;;;;11.63;3.70;;;;;;;12.68;71.84;98918.53;5029140;28;20046;-41
2022/09/29 09:21:18;;;;;;;13.98;4.70;;;;;;;12.70;70.89;98935.75;5060018;27;20403;-43
2022/09/29 09:24:24;;;;;;;14.45;5.25;;;;;;;12.71;71.51;98940.06;5062328;28;20143;-46
2022/09/29 09:26:52;;;;;;;15.00;4.93;;;;;;;12.80;71.97;98951.94;5044058;28;20045;-42
2022/09/29 09:29:29;;;;;;;14.13;4.78;;;;;;;12.91;72.10;98945.56;5061000;28;20112;-42
2022/09/29 09:34:48;;;;;;;11.63;4.15;;;;;;;13.19;70.86;98957.72;5071627;27;20388;-42
2022/09/29 09:37:24;;;;;;;11.63;3.72;;;;;;;13.23;71.88;98961.91;5008211;28;20045;-49
2022/09/29 09:40:13;;;;;;;10.93;3.75;;;;;;;13.26;71.04;98961.84;5011365;28;20074;-44
2022/09/29 09:42:45;;;;;;;9.80;4.10;;;;;;;13.27;70.76;98963.53;5012311;28;20081;-43
2022/09/29 09:45:22;;;;;;;9.55;3.80;;;;;;;13.25;71.21;98965.34;5026125;28;20061;-42
2022/09/29 09:47:58;;;;;;;9.30;3.72;;;;;;;13.27;70.85;98968.72;5021693;28;20136;-42
2022/09/29 09:50:25;;;;;;;11.25;4.38;;;;;;;13.28;70.35;98970.44;5004272;28;20046;-41
2022/09/29 09:55:33;;;;;;;10.40;4.43;;;;;;;13.32;70.67;98966.84;5056803;27;20380;-43
2022/09/29 10:01:05;;;;;;;12.38;5.95;;;;;;;15.15;70.99;98976.22;5041638;28;20884;-42
2022/09/29 10:03:33;;;;;;;9.93;5.90;;;;;;;15.82;69.41;98978.78;5022966;28;20058;-42
2022/09/29 10:06:00;;;;;;;8.98;3.95;;;;;;;16.40;68.75;98982.44;5021364;28;20732;-42
2022/09/29 10:08:30;;;;;;;10.05;4.88;;;;;;;16.66;66.07;98984.81;5021850;28;20099;-43
2022/09/29 10:10:58;;;;;;;8.93;4.53;;;;;;;16.50;65.37;98989.88;5023541;28;20042;-43
2022/09/29 10:13:29;;;;;;;9.50;4.88;;;;;;;16.18;63.54;98990.38;5022264;28;20065;-42
2022/09/29 10:23:56;;;;;;;10.05;3.53;;;;;;;15.35;64.16;99001.53;4996031;28;20400;-41
2022/09/29 10:29:41;;;;;;;6.32;4.03;;;;;;;15.14;64.02;98998.81;5081464;27;20403;-41
2022/09/29 10:32:13;;;;;;;6.35;3.88;;;;;;;15.12;64.67;98995.44;5058279;28;20135;-42
2022/09/29 10:34:45;;;;;;;5.28;2.38;;;;;;;15.18;63.62;99001.31;5046357;28;20645;-42
2022/09/29 10:37:34;;;;;;;6.85;3.55;;;;;;;15.34;63.63;99006.78;5057159;28;20437;-42
2022/09/29 10:40:14;;;;;;;4.70;3.38;;;;;;;15.55;63.75;99012.91;5057701;28;20044;-43
2022/09/29 10:42:44;;;;;;;5.93;3.85;;;;;;;15.68;62.69;99008.88;5056912;28;20041;-44
2022/09/29 10:45:28;;;;;;;4.07;2.97;;;;;;;15.61;60.01;99017.91;5058654;28;20071;-43
2022/09/29 10:50:38;;;;;;;7.50;1.48;;;;;;;15.82;61.01;99020.53;5081629;27;20412;-43
2022/09/29 10:53:18;;;;;;;2.58;1.20;;;;;;;16.01;60.27;99025.88;5058143;28;20139;-44
2022/09/29 10:55:52;;;;;;;4.15;1.00;;;;;;;16.15;61.10;99027.91;5076937;28;20093;-43
2022/09/29 11:01:16;;;;;;;3.15;1.75;;;;;;;16.32;59.16;99023.75;5059574;27;20933;-44
2022/09/29 11:03:51;;;;;;;3.65;1.50;;;;;;;16.36;58.62;99035.75;5012049;28;20561;-44
2022/09/29 11:06:26;;;;;;;4.25;1.13;;;;;;;16.34;57.97;99041.97;5017676;28;20708;-42
2022/09/29 11:11:36;;;;;;;2.15;1.67;;;;;;;16.14;57.40;99047.09;5017988;28;20399;-41
2022/09/29 11:14:03;;;;;;;2.20;0.90;;;;;;;16.11;57.67;99046.41;5028469;28;20458;-44
2022/09/29 11:19:11;;;;;;;1.98;1.25;;;;;;;16.09;57.40;99051.69;5037361;28;20408;-42
2022/09/29 11:24:37;;;;;;;2.45;2.13;;;;;;;16.32;56.98;99071.59;4998997;28;20419;-44
2022/09/29 11:30:05;;;;;;;2.78;1.50;;;;;;;16.42;56.83;99081.69;5012358;28;20406;-44
2022/09/29 11:45:59;;;;;;;2.83;1.65;;;;;;;16.69;55.60;99090.09;5103064;27;20740;-43
2022/09/29 11:59:41;;;;;;;2.83;1.42;;;;;;;17.10;55.42;99104.06;5020710;28;20399;-41
2022/09/29 12:05:11;;;;;;;3.78;3.28;;;;;;;17.13;55.66;99108.28;5026235;28;20406;-47
2022/09/29 12:18:42;;;;;;;4.35;1.88;;;;;;;17.35;54.85;99102.91;5053266;28;20396;-42
2022/09/29 12:21:12;;;;;;;4.75;1.58;;;;;;;17.40;55.11;99106.19;5032912;28;20054;-44
2022/09/29 12:23:45;;;;;;;2.30;1.23;;;;;;;17.45;54.04;99109.44;4997502;28;20762;-42
2022/09/29 12:26:19;;;;;;;2.83;1.45;;;;;;;17.39;53.92;99106.25;5003322;28;20096;-43
2022/09/29 12:31:48;;;;;;;3.78;2.83;;;;;;;17.36;54.58;99115.09;5032672;28;20409;-44
2022/09/29 12:34:34;;;;;;;2.35;1.80;;;;;;;17.38;54.62;99123.72;5003513;28;20091;-42
2022/09/29 12:37:09;;;;;;;3.42;3.03;;;;;;;17.36;53.95;99109.84;5003607;28;20074;-45
2022/09/29 12:48:16;;;;;;;3.83;2.88;;;;;;;17.56;52.74;99115.94;5048958;27;20393;-43
2022/09/29 12:50:51;;;;;;;3.42;2.88;;;;;;;17.58;52.95;99111.47;5033863;28;20076;-45
2022/09/29 12:53:28;;;;;;;3.13;2.67;;;;;;;17.72;53.14;99114.31;5041725;28;20122;-42
2022/09/29 12:58:47;;;;;;;2.08;1.15;;;;;;;18.09;51.87;99113.47;5046900;28;20411;-42
2022/09/29 13:01:32;;;;;;;1.63;1.25;;;;;;;18.18;51.28;99118.28;5060224;28;20164;-45
2022/09/29 13:14:54;;;;;;;2.78;2.45;;;;;;;18.66;51.22;99117.63;5023722;27;20412;-41
2022/09/29 13:28:36;;;;;;;1.77;0.88;;;;;;;19.12;50.00;99118.81;5056439;27;20938;-47
2022/09/29 13:31:08;;;;;;;2.58;2.38;;;;;;;19.19;48.85;99120.19;4990035;28;20486;-44
2022/09/29 13:33:35;;;;;;;2.35;2.13;;;;;;;19.16;49.20;99125.59;4988921;28;20050;-44
2022/09/29 13:36:02;;;;;;;2.58;2.33;;;;;;;19.10;48.97;99125.91;4991097;28;20149;-42
2022/09/29 13:38:34;;;;;;;2.53;2.33;;;;;;;18.94;48.66;99126.69;4987365;28;20061;-42
2022/09/29 13:46:39;;;;;;;2.30;1.25;;;;;;;19.09;49.41;99127.72;5031514;28;20417;-41
2022/09/29 13:59:46;;;;;;;2.95;0.82;;;;;;;19.45;48.27;99132.84;5027702;28;21154;-44
2022/09/29 14:02:26;;;;;;;2.28;0.90;;;;;;;19.43;48.49;99135.53;5007760;28;20136;-43
2022/09/29 14:04:55;;;;;;;1.88;0.75;;;;;;;19.39;47.83;99136.66;5013027;28;20054;-43
2022/09/29 14:07:42;;;;;;;1.73;1.13;;;;;;;19.24;47.28;99138.28;5017413;28;20567;-42
2022/09/29 14:15:42;;;;;;;2.72;2.42;;;;;;;19.14;47.71;99145.81;5028409;27;20406;-41
2022/09/29 14:18:25;;;;;;;2.35;2.15;;;;;;;19.04;47.53;99144.59;5004268;28;20057;-43
2022/09/29 14:23:51;;;;;;;4.60;1.95;;;;;;;18.84;47.61;99136.81;5077203;27;20408;-42
2022/09/29 14:26:42;;;;;;;2.22;1.10;;;;;;;18.73;47.93;99145.25;5054616;28;20188;-43
2022/09/29 14:29:19;;;;;;;3.22;1.20;;;;;;;18.70;48.27;99152.41;5085970;28;20132;-42
2022/09/29 14:31:51;;;;;;;1.67;1.00;;;;;;;18.60;48.28;99149.41;5058140;28;20528;-47
2022/09/29 14:34:22;;;;;;;3.00;0.80;;;;;;;18.52;48.83;99162.06;5057371;28;20440;-45
2022/09/29 14:36:52;;;;;;;1.02;0.80;;;;;;;18.44;48.79;99158.03;5059703;28;20041;-45
2022/09/29 14:39:19;;;;;;;1.50;1.20;;;;;;;18.37;48.82;99154.03;5089120;28;20075;-47
2022/09/29 14:42:00;;;;;;;1.60;0.90;;;;;;;18.30;49.09;99158.72;5093368;28;20064;-43
2022/09/29 14:58:57;;;;;;;3.10;1.73;;;;;;;18.09;50.03;99163.25;5046249;28;20397;-43
2022/09/29 15:01:27;;;;;;;2.33;2.13;;;;;;;18.13;49.10;99167.41;4993025;28;20733;-42
2022/09/29 15:04:05;;;;;;;2.40;2.15;;;;;;;18.09;49.34;99171.09;4978629;28;20046;-44
2022/09/29 15:06:32;;;;;;;1.85;1.75;;;;;;;18.09;49.24;99165.88;4999311;28;20043;-43
2022/09/29 15:09:02;;;;;;;1.70;1.02;;;;;;;18.09;48.89;99165.88;4990448;28;21454;-41
2022/09/29 15:11:36;;;;;;;1.60;1.50;;;;;;;18.12;49.33;99163.09;4994405;28;20133;-43
2022/09/29 15:14:25;;;;;;;2.53;1.88;;;;;;;18.09;49.24;99181.59;4975922;28;20058;-45
2022/09/29 15:20:10;;;;;;;4.47;1.38;;;;;;;18.29;48.46;99182.41;5035519;28;20395;-43
2022/09/29 15:25:40;;;;;;;2.17;1.27;;;;;;;18.13;49.90;99183.13;5112190;27;20399;-42
2022/09/29 15:31:10;;;;;;;2.45;0.82;;;;;;;18.09;50.02;99197.31;5121624;27;20380;-44
2022/09/29 15:33:41;;;;;;;1.00;0.65;;;;;;;18.05;50.30;99195.72;5065109;28;20041;-44
2022/09/29 15:38:59;;;;;;;2.33;2.03;;;;;;;17.92;50.67;99200.69;5029076;28;20414;-43